sensor_id;sensor_type;location;lat;lon;timestamp;temperature;humidity
5930;DHT22;2990;48.746;9.236;2023-03-16T00:02:12;0.20;99.90
5930;DHT22;2990;48.746;9.236;2023-03-16T00:04:38;0.20;99.90
5930;DHT22;2990;48.746;9.236;2023-03-16T00:07:07;0.10;99.90
5930;DHT22;2990;48.746;9.236;2023-03-16T00:09:33;0.00;99.90
5930;DHT22;2990;48.746;9.236;2023-03-16T00:12:01;0.10;99.90
5930;DHT22;2990;48.746;9.236;2023-03-16T00:14:30;0.00;99.90
5930;DHT22;2990;48.746;9.236;2023-03-16T00:16:56;0.00;99.90
5930;DHT22;2990;48.746;9.236;2023-03-16T00:19:22;0.00;99.90
5930;DHT22;2990;48.746;9.236;2023-03-16T00:21:49;-0.10;99.90
5930;DHT22;2990;48.746;9.236;2023-03-16T00:24:15;-0.10;99.90
5930;DHT22;2990;48.746;9.236;2023-03-16T00:26:42;-0.10;99.90
5930;DHT22;2990;48.746;9.236;2023-03-16T00:29:08;-0.10;99.90
5930;DHT22;2990;48.746;9.236;2023-03-16T00:31:34;-0.10;99.90
5930;DHT22;2990;48.746;9.236;2023-03-16T00:34:00;-0.20;99.90
5930;DHT22;2990;48.746;9.236;2023-03-16T00:36:27;-0.10;99.90
5930;DHT22;2990;48.746;9.236;2023-03-16T00:38:52;-0.10;99.90
5930;DHT22;2990;48.746;9.236;2023-03-16T00:41:18;-0.10;99.90
5930;DHT22;2990;48.746;9.236;2023-03-16T00:43:44;-0.20;99.90
5930;DHT22;2990;48.746;9.236;2023-03-16T00:46:14;-0.20;99.90
5930;DHT22;2990;48.746;9.236;2023-03-16T00:48:42;-0.20;99.90
5930;DHT22;2990;48.746;9.236;2023-03-16T00:51:11;-0.10;99.90
5930;DHT22;2990;48.746;9.236;2023-03-16T00:53:39;-0.20;99.90
5930;DHT22;2990;48.746;9.236;2023-03-16T00:56:05;-0.10;99.90
5930;DHT22;2990;48.746;9.236;2023-03-16T00:58:32;-0.20;99.90
5930;DHT22;2990;48.746;9.236;2023-03-16T01:01:08;-0.10;99.90
5930;DHT22;2990;48.746;9.236;2023-03-16T01:03:34;-0.10;99.90
5930;DHT22;2990;48.746;9.236;2023-03-16T01:06:05;-0.20;99.90
5930;DHT22;2990;48.746;9.236;2023-03-16T01:08:31;-0.20;99.90
5930;DHT22;2990;48.746;9.236;2023-03-16T01:11:08;-0.20;99.90
5930;DHT22;2990;48.746;9.236;2023-03-16T01:13:35;-0.20;99.90
5930;DHT22;2990;48.746;9.236;2023-03-16T01:16:01;-0.20;99.90
5930;DHT22;2990;48.746;9.236;2023-03-16T01:18:28;-0.20;99.90
5930;DHT22;2990;48.746;9.236;2023-03-16T01:20:54;-0.10;99.90
5930;DHT22;2990;48.746;9.236;2023-03-16T01:23:20;-0.20;99.90
5930;DHT22;2990;48.746;9.236;2023-03-16T01:25:46;-0.20;99.90
5930;DHT22;2990;48.746;9.236;2023-03-16T01:28:27;-0.30;99.90
5930;DHT22;2990;48.746;9.236;2023-03-16T01:30:57;-0.20;99.90
5930;DHT22;2990;48.746;9.236;2023-03-16T01:33:25;-0.30;99.90
5930;DHT22;2990;48.746;9.236;2023-03-16T01:35:55;-0.40;99.90
5930;DHT22;2990;48.746;9.236;2023-03-16T01:38:21;-0.40;99.90
5930;DHT22;2990;48.746;9.236;2023-03-16T01:40:49;-0.40;99.90
5930;DHT22;2990;48.746;9.236;2023-03-16T01:43:23;-0.30;99.90
5930;DHT22;2990;48.746;9.236;2023-03-16T01:48:32;-0.30;99.90
5930;DHT22;2990;48.746;9.236;2023-03-16T01:51:09;-0.40;99.90
5930;DHT22;2990;48.746;9.236;2023-03-16T01:53:37;-0.40;99.90
5930;DHT22;2990;48.746;9.236;2023-03-16T01:56:06;-0.50;99.90
5930;DHT22;2990;48.746;9.236;2023-03-16T01:58:34;-0.40;99.90
5930;DHT22;2990;48.746;9.236;2023-03-16T02:01:02;-0.50;99.90
5930;DHT22;2990;48.746;9.236;2023-03-16T02:03:28;-0.50;99.90
5930;DHT22;2990;48.746;9.236;2023-03-16T02:06:19;-0.60;99.90
5930;DHT22;2990;48.746;9.236;2023-03-16T02:08:46;-0.60;99.90
5930;DHT22;2990;48.746;9.236;2023-03-16T02:11:14;-0.70;99.90
5930;DHT22;2990;48.746;9.236;2023-03-16T02:13:45;-0.70;99.90
5930;DHT22;2990;48.746;9.236;2023-03-16T02:16:11;-0.70;99.90
5930;DHT22;2990;48.746;9.236;2023-03-16T02:18:37;-0.70;99.90
5930;DHT22;2990;48.746;9.236;2023-03-16T02:21:18;-0.70;99.90
5930;DHT22;2990;48.746;9.236;2023-03-16T02:27:13;-0.80;99.90
5930;DHT22;2990;48.746;9.236;2023-03-16T02:32:31;-0.80;99.90
5930;DHT22;2990;48.746;9.236;2023-03-16T02:34:58;-0.90;99.90
5930;DHT22;2990;48.746;9.236;2023-03-16T02:37:25;-0.90;99.90
5930;DHT22;2990;48.746;9.236;2023-03-16T02:39:51;-0.90;99.90
5930;DHT22;2990;48.746;9.236;2023-03-16T02:42:19;-0.90;99.90
5930;DHT22;2990;48.746;9.236;2023-03-16T02:44:51;-0.90;99.90
5930;DHT22;2990;48.746;9.236;2023-03-16T02:47:29;-0.90;99.90
5930;DHT22;2990;48.746;9.236;2023-03-16T02:49:57;-0.90;99.90
5930;DHT22;2990;48.746;9.236;2023-03-16T02:52:23;-0.90;99.90
5930;DHT22;2990;48.746;9.236;2023-03-16T02:54:48;-0.90;99.90
5930;DHT22;2990;48.746;9.236;2023-03-16T02:57:14;-0.90;99.90
5930;DHT22;2990;48.746;9.236;2023-03-16T02:59:39;-1.00;99.90
5930;DHT22;2990;48.746;9.236;2023-03-16T03:02:05;-0.90;99.90
5930;DHT22;2990;48.746;9.236;2023-03-16T03:04:31;-0.90;99.90
5930;DHT22;2990;48.746;9.236;2023-03-16T03:06:57;-0.90;99.90
5930;DHT22;2990;48.746;9.236;2023-03-16T03:09:28;-0.90;99.90
5930;DHT22;2990;48.746;9.236;2023-03-16T03:11:54;-1.00;99.90
5930;DHT22;2990;48.746;9.236;2023-03-16T03:14:19;-0.80;99.90
5930;DHT22;2990;48.746;9.236;2023-03-16T03:16:45;-1.00;99.90
5930;DHT22;2990;48.746;9.236;2023-03-16T03:19:11;-1.00;99.90
5930;DHT22;2990;48.746;9.236;2023-03-16T03:21:38;-1.00;99.90
5930;DHT22;2990;48.746;9.236;2023-03-16T03:24:04;-1.00;99.90
5930;DHT22;2990;48.746;9.236;2023-03-16T03:26:30;-1.00;99.90
5930;DHT22;2990;48.746;9.236;2023-03-16T03:28:56;-1.00;99.90
5930;DHT22;2990;48.746;9.236;2023-03-16T03:31:21;-1.10;99.90
5930;DHT22;2990;48.746;9.236;2023-03-16T03:33:48;-1.00;99.90
5930;DHT22;2990;48.746;9.236;2023-03-16T03:36:13;-1.10;99.90
5930;DHT22;2990;48.746;9.236;2023-03-16T03:38:39;-1.00;99.90
5930;DHT22;2990;48.746;9.236;2023-03-16T03:41:05;-1.00;99.90
5930;DHT22;2990;48.746;9.236;2023-03-16T03:43:32;-1.00;99.90
5930;DHT22;2990;48.746;9.236;2023-03-16T03:45:59;-1.10;99.90
5930;DHT22;2990;48.746;9.236;2023-03-16T03:48:25;-1.00;99.90
5930;DHT22;2990;48.746;9.236;2023-03-16T03:50:51;-1.00;99.90
5930;DHT22;2990;48.746;9.236;2023-03-16T03:53:18;-0.90;99.90
5930;DHT22;2990;48.746;9.236;2023-03-16T03:55:44;-0.90;99.90
5930;DHT22;2990;48.746;9.236;2023-03-16T03:58:09;-0.60;99.90
5930;DHT22;2990;48.746;9.236;2023-03-16T04:00:36;-0.80;99.90
5930;DHT22;2990;48.746;9.236;2023-03-16T04:03:02;-0.80;99.90
5930;DHT22;2990;48.746;9.236;2023-03-16T04:05:30;-0.70;99.90
5930;DHT22;2990;48.746;9.236;2023-03-16T04:07:57;-0.70;99.90
5930;DHT22;2990;48.746;9.236;2023-03-16T04:10:27;-0.80;99.90
5930;DHT22;2990;48.746;9.236;2023-03-16T04:12:55;-0.70;99.90
5930;DHT22;2990;48.746;9.236;2023-03-16T04:15:21;-0.70;99.90
5930;DHT22;2990;48.746;9.236;2023-03-16T04:17:51;-0.70;99.90
5930;DHT22;2990;48.746;9.236;2023-03-16T04:20:18;-0.70;99.90
5930;DHT22;2990;48.746;9.236;2023-03-16T04:22:45;-0.70;99.90
5930;DHT22;2990;48.746;9.236;2023-03-16T04:25:13;-0.70;99.90
5930;DHT22;2990;48.746;9.236;2023-03-16T04:27:39;-0.80;99.90
5930;DHT22;2990;48.746;9.236;2023-03-16T04:30:08;-0.80;99.90
5930;DHT22;2990;48.746;9.236;2023-03-16T04:32:35;-0.80;99.90
5930;DHT22;2990;48.746;9.236;2023-03-16T04:35:01;-0.60;99.90
5930;DHT22;2990;48.746;9.236;2023-03-16T04:40:46;-0.70;99.90
5930;DHT22;2990;48.746;9.236;2023-03-16T04:43:12;-0.80;99.90
5930;DHT22;2990;48.746;9.236;2023-03-16T04:45:38;-0.70;99.90
5930;DHT22;2990;48.746;9.236;2023-03-16T04:48:04;-0.70;99.90
5930;DHT22;2990;48.746;9.236;2023-03-16T04:50:29;-0.70;99.90
5930;DHT22;2990;48.746;9.236;2023-03-16T04:52:57;-0.80;99.90
5930;DHT22;2990;48.746;9.236;2023-03-16T04:55:22;-0.70;99.90
5930;DHT22;2990;48.746;9.236;2023-03-16T04:57:48;-0.70;99.90
5930;DHT22;2990;48.746;9.236;2023-03-16T05:00:14;-0.70;99.90
5930;DHT22;2990;48.746;9.236;2023-03-16T05:02:46;-0.80;99.90
5930;DHT22;2990;48.746;9.236;2023-03-16T05:05:12;-0.80;99.90
5930;DHT22;2990;48.746;9.236;2023-03-16T05:07:38;-0.80;99.90
5930;DHT22;2990;48.746;9.236;2023-03-16T05:10:11;-0.80;99.90
5930;DHT22;2990;48.746;9.236;2023-03-16T05:13:12;-0.90;99.90
5930;DHT22;2990;48.746;9.236;2023-03-16T05:15:38;-0.90;99.90
5930;DHT22;2990;48.746;9.236;2023-03-16T05:18:04;-0.90;99.90
5930;DHT22;2990;48.746;9.236;2023-03-16T05:20:29;-0.90;99.90
5930;DHT22;2990;48.746;9.236;2023-03-16T05:22:56;-1.00;99.90
5930;DHT22;2990;48.746;9.236;2023-03-16T05:25:21;-1.00;99.90
5930;DHT22;2990;48.746;9.236;2023-03-16T05:27:49;-1.00;99.90
5930;DHT22;2990;48.746;9.236;2023-03-16T05:33:37;-0.90;99.90
5930;DHT22;2990;48.746;9.236;2023-03-16T05:36:03;-0.80;99.90
5930;DHT22;2990;48.746;9.236;2023-03-16T05:38:31;-0.80;99.90
5930;DHT22;2990;48.746;9.236;2023-03-16T05:41:01;-0.80;99.90
5930;DHT22;2990;48.746;9.236;2023-03-16T05:43:29;-0.80;99.90
5930;DHT22;2990;48.746;9.236;2023-03-16T05:45:55;-0.70;99.90
5930;DHT22;2990;48.746;9.236;2023-03-16T05:48:22;-0.70;99.90
5930;DHT22;2990;48.746;9.236;2023-03-16T05:50:50;-0.70;99.90
5930;DHT22;2990;48.746;9.236;2023-03-16T05:53:16;-0.70;99.90
5930;DHT22;2990;48.746;9.236;2023-03-16T05:55:42;-0.70;99.90
5930;DHT22;2990;48.746;9.236;2023-03-16T05:58:08;-0.70;99.90
5930;DHT22;2990;48.746;9.236;2023-03-16T06:00:33;-0.70;99.90
5930;DHT22;2990;48.746;9.236;2023-03-16T06:02:59;-0.60;99.90
5930;DHT22;2990;48.746;9.236;2023-03-16T06:05:26;-0.60;99.90
5930;DHT22;2990;48.746;9.236;2023-03-16T06:07:53;-0.60;99.90
5930;DHT22;2990;48.746;9.236;2023-03-16T06:10:20;-0.60;99.90
5930;DHT22;2990;48.746;9.236;2023-03-16T06:12:46;-0.50;99.90
5930;DHT22;2990;48.746;9.236;2023-03-16T06:15:12;-0.50;99.90
5930;DHT22;2990;48.746;9.236;2023-03-16T06:17:38;-0.50;99.90
5930;DHT22;2990;48.746;9.236;2023-03-16T06:20:06;-0.40;99.90
5930;DHT22;2990;48.746;9.236;2023-03-16T06:22:36;-0.40;99.90
5930;DHT22;2990;48.746;9.236;2023-03-16T06:25:03;-0.30;99.90
5930;DHT22;2990;48.746;9.236;2023-03-16T06:27:29;-0.30;99.90
5930;DHT22;2990;48.746;9.236;2023-03-16T06:29:55;-0.20;99.90
5930;DHT22;2990;48.746;9.236;2023-03-16T06:32:20;-0.10;99.90
5930;DHT22;2990;48.746;9.236;2023-03-16T06:34:46;-0.10;99.90
5930;DHT22;2990;48.746;9.236;2023-03-16T06:37:12;0.00;99.90
5930;DHT22;2990;48.746;9.236;2023-03-16T06:39:39;0.00;99.90
5930;DHT22;2990;48.746;9.236;2023-03-16T06:42:04;0.00;99.90
5930;DHT22;2990;48.746;9.236;2023-03-16T06:44:30;0.00;99.90
5930;DHT22;2990;48.746;9.236;2023-03-16T06:46:57;0.00;99.90
5930;DHT22;2990;48.746;9.236;2023-03-16T06:49:22;0.00;99.90
5930;DHT22;2990;48.746;9.236;2023-03-16T06:51:48;0.10;99.90
5930;DHT22;2990;48.746;9.236;2023-03-16T06:54:14;0.10;99.90
5930;DHT22;2990;48.746;9.236;2023-03-16T06:56:39;0.10;99.90
5930;DHT22;2990;48.746;9.236;2023-03-16T06:59:05;0.00;99.90
5930;DHT22;2990;48.746;9.236;2023-03-16T07:01:31;0.20;99.90
5930;DHT22;2990;48.746;9.236;2023-03-16T07:03:57;0.20;99.90
5930;DHT22;2990;48.746;9.236;2023-03-16T07:06:22;0.20;99.90
5930;DHT22;2990;48.746;9.236;2023-03-16T07:08:48;0.40;99.90
5930;DHT22;2990;48.746;9.236;2023-03-16T07:11:14;0.40;99.90
5930;DHT22;2990;48.746;9.236;2023-03-16T07:13:40;0.60;99.90
5930;DHT22;2990;48.746;9.236;2023-03-16T07:16:06;0.50;99.90
5930;DHT22;2990;48.746;9.236;2023-03-16T07:18:32;0.60;97.30
5930;DHT22;2990;48.746;9.236;2023-03-16T07:20:58;0.80;91.80
5930;DHT22;2990;48.746;9.236;2023-03-16T07:23:24;0.70;77.50
5930;DHT22;2990;48.746;9.236;2023-03-16T07:25:51;0.80;59.20
5930;DHT22;2990;48.746;9.236;2023-03-16T07:28:20;0.90;30.30
5930;DHT22;2990;48.746;9.236;2023-03-16T07:30:46;1.00;18.90
5930;DHT22;2990;48.746;9.236;2023-03-16T07:33:12;1.10;1.00
5930;DHT22;2990;48.746;9.236;2023-03-16T07:35:38;1.20;1.00
5930;DHT22;2990;48.746;9.236;2023-03-16T07:38:03;1.20;1.00
5930;DHT22;2990;48.746;9.236;2023-03-16T07:40:29;1.30;1.00
5930;DHT22;2990;48.746;9.236;2023-03-16T07:42:55;1.50;1.00
5930;DHT22;2990;48.746;9.236;2023-03-16T07:45:30;1.40;1.00
5930;DHT22;2990;48.746;9.236;2023-03-16T07:48:12;1.70;1.00
5930;DHT22;2990;48.746;9.236;2023-03-16T07:50:40;1.60;1.00
5930;DHT22;2990;48.746;9.236;2023-03-16T07:53:14;1.70;1.00
5930;DHT22;2990;48.746;9.236;2023-03-16T08:12:27;2.70;99.90
5930;DHT22;2990;48.746;9.236;2023-03-16T08:15:28;2.90;1.00
5930;DHT22;2990;48.746;9.236;2023-03-16T08:18:02;3.10;1.00
5930;DHT22;2990;48.746;9.236;2023-03-16T08:20:48;3.30;1.00
5930;DHT22;2990;48.746;9.236;2023-03-16T08:23:18;3.50;99.90
5930;DHT22;2990;48.746;9.236;2023-03-16T08:25:56;3.70;1.00
5930;DHT22;2990;48.746;9.236;2023-03-16T08:28:42;4.00;99.90
5930;DHT22;2990;48.746;9.236;2023-03-16T08:34:39;4.40;1.00
5930;DHT22;2990;48.746;9.236;2023-03-16T08:37:09;4.80;99.90
5930;DHT22;2990;48.746;9.236;2023-03-16T08:39:40;5.00;1.00
5930;DHT22;2990;48.746;9.236;2023-03-16T08:42:22;5.30;99.90
5930;DHT22;2990;48.746;9.236;2023-03-16T08:45:15;5.60;16.60
5930;DHT22;2990;48.746;9.236;2023-03-16T08:47:47;5.80;1.00
5930;DHT22;2990;48.746;9.236;2023-03-16T08:50:52;5.80;1.00
5930;DHT22;2990;48.746;9.236;2023-03-16T08:54:03;6.10;1.00
5930;DHT22;2990;48.746;9.236;2023-03-16T08:56:38;6.20;1.00
5930;DHT22;2990;48.746;9.236;2023-03-16T08:59:19;6.40;1.00
5930;DHT22;2990;48.746;9.236;2023-03-16T09:01:52;6.60;1.00
5930;DHT22;2990;48.746;9.236;2023-03-16T09:04:44;6.70;1.00
5930;DHT22;2990;48.746;9.236;2023-03-16T09:07:19;7.20;1.00
5930;DHT22;2990;48.746;9.236;2023-03-16T09:09:45;7.10;1.00
5930;DHT22;2990;48.746;9.236;2023-03-16T09:12:21;7.10;99.90
5930;DHT22;2990;48.746;9.236;2023-03-16T09:18:05;7.50;99.90
5930;DHT22;2990;48.746;9.236;2023-03-16T09:20:47;7.60;99.90
5930;DHT22;2990;48.746;9.236;2023-03-16T09:23:44;7.80;99.90
5930;DHT22;2990;48.746;9.236;2023-03-16T09:26:25;8.00;99.90
5930;DHT22;2990;48.746;9.236;2023-03-16T09:29:04;8.10;99.90
5930;DHT22;2990;48.746;9.236;2023-03-16T09:31:38;8.30;99.90
5930;DHT22;2990;48.746;9.236;2023-03-16T09:34:35;8.70;99.90
5930;DHT22;2990;48.746;9.236;2023-03-16T09:37:29;8.80;99.90
5930;DHT22;2990;48.746;9.236;2023-03-16T09:40:06;8.70;99.90
5930;DHT22;2990;48.746;9.236;2023-03-16T09:45:40;8.80;99.90
5930;DHT22;2990;48.746;9.236;2023-03-16T09:48:25;8.90;99.90
5930;DHT22;2990;48.746;9.236;2023-03-16T09:51:39;9.20;99.90
5930;DHT22;2990;48.746;9.236;2023-03-16T09:54:58;9.40;99.90
5930;DHT22;2990;48.746;9.236;2023-03-16T10:00:19;9.80;99.90
5930;DHT22;2990;48.746;9.236;2023-03-16T10:06:06;9.80;99.90
5930;DHT22;2990;48.746;9.236;2023-03-16T10:09:15;9.80;99.90
5930;DHT22;2990;48.746;9.236;2023-03-16T10:17:48;9.40;99.90
5930;DHT22;2990;48.746;9.236;2023-03-16T10:20:27;9.70;99.90
5930;DHT22;2990;48.746;9.236;2023-03-16T10:26:35;10.10;99.90
5930;DHT22;2990;48.746;9.236;2023-03-16T10:29:26;10.30;99.90
5930;DHT22;2990;48.746;9.236;2023-03-16T10:32:15;10.20;99.90
5930;DHT22;2990;48.746;9.236;2023-03-16T10:34:59;9.90;99.90
5930;DHT22;2990;48.746;9.236;2023-03-16T10:37:34;9.70;99.90
5930;DHT22;2990;48.746;9.236;2023-03-16T10:40:17;10.00;99.90
5930;DHT22;2990;48.746;9.236;2023-03-16T10:42:49;10.40;99.90
5930;DHT22;2990;48.746;9.236;2023-03-16T10:45:41;10.60;99.90
5930;DHT22;2990;48.746;9.236;2023-03-16T10:48:51;10.90;99.90
5930;DHT22;2990;48.746;9.236;2023-03-16T10:51:29;11.00;99.90
5930;DHT22;2990;48.746;9.236;2023-03-16T10:54:25;11.10;99.90
5930;DHT22;2990;48.746;9.236;2023-03-16T11:02:48;11.00;99.90
5930;DHT22;2990;48.746;9.236;2023-03-16T11:05:46;11.10;99.90
5930;DHT22;2990;48.746;9.236;2023-03-16T11:11:33;11.30;99.90
5930;DHT22;2990;48.746;9.236;2023-03-16T11:14:11;11.70;99.90
5930;DHT22;2990;48.746;9.236;2023-03-16T11:17:01;12.00;94.50
5930;DHT22;2990;48.746;9.236;2023-03-16T11:19:40;11.50;88.80
5930;DHT22;2990;48.746;9.236;2023-03-16T11:22:30;11.40;99.90
5930;DHT22;2990;48.746;9.236;2023-03-16T11:25:26;11.70;95.90
5930;DHT22;2990;48.746;9.236;2023-03-16T11:33:58;11.60;99.90
5930;DHT22;2990;48.746;9.236;2023-03-16T11:36:46;11.80;96.70
5930;DHT22;2990;48.746;9.236;2023-03-16T11:45:28;11.50;77.10
5930;DHT22;2990;48.746;9.236;2023-03-16T11:51:29;11.70;93.90
5930;DHT22;2990;48.746;9.236;2023-03-16T11:57:38;12.30;85.20
5930;DHT22;2990;48.746;9.236;2023-03-16T12:08:20;12.20;60.40
5930;DHT22;2990;48.746;9.236;2023-03-16T12:13:40;12.00;66.10
5930;DHT22;2990;48.746;9.236;2023-03-16T12:16:25;12.00;66.70
5930;DHT22;2990;48.746;9.236;2023-03-16T12:19:14;12.30;76.40
5930;DHT22;2990;48.746;9.236;2023-03-16T12:21:44;12.50;48.40
5930;DHT22;2990;48.746;9.236;2023-03-16T12:24:20;12.60;39.60
5930;DHT22;2990;48.746;9.236;2023-03-16T12:26:52;12.40;42.70
5930;DHT22;2990;48.746;9.236;2023-03-16T12:29:37;12.30;30.90
5930;DHT22;2990;48.746;9.236;2023-03-16T12:32:19;12.20;24.30
5930;DHT22;2990;48.746;9.236;2023-03-16T12:37:41;12.00;30.00
5930;DHT22;2990;48.746;9.236;2023-03-16T12:40:32;12.30;20.80
5930;DHT22;2990;48.746;9.236;2023-03-16T12:43:22;12.40;13.20
5930;DHT22;2990;48.746;9.236;2023-03-16T12:46:05;12.50;37.80
5930;DHT22;2990;48.746;9.236;2023-03-16T12:48:51;12.20;6.10
5930;DHT22;2990;48.746;9.236;2023-03-16T12:51:18;12.00;10.90
5930;DHT22;2990;48.746;9.236;2023-03-16T12:56:34;12.10;9.50
5930;DHT22;2990;48.746;9.236;2023-03-16T12:59:06;12.10;11.50
5930;DHT22;2990;48.746;9.236;2023-03-16T13:01:42;12.30;13.20
5930;DHT22;2990;48.746;9.236;2023-03-16T13:04:17;12.20;53.30
5930;DHT22;2990;48.746;9.236;2023-03-16T13:06:47;12.30;29.50
5930;DHT22;2990;48.746;9.236;2023-03-16T13:09:24;12.30;15.30
5930;DHT22;2990;48.746;9.236;2023-03-16T13:11:55;12.30;24.20
5930;DHT22;2990;48.746;9.236;2023-03-16T13:14:41;12.10;16.20
5930;DHT22;2990;48.746;9.236;2023-03-16T13:19:40;12.20;4.20
5930;DHT22;2990;48.746;9.236;2023-03-16T13:22:25;12.00;7.70
5930;DHT22;2990;48.746;9.236;2023-03-16T13:25:10;12.00;7.20
5930;DHT22;2990;48.746;9.236;2023-03-16T13:27:41;11.90;9.50
5930;DHT22;2990;48.746;9.236;2023-03-16T13:30:23;11.80;1.70
5930;DHT22;2990;48.746;9.236;2023-03-16T13:33:02;12.00;1.00
5930;DHT22;2990;48.746;9.236;2023-03-16T13:35:36;12.10;12.90
5930;DHT22;2990;48.746;9.236;2023-03-16T13:38:11;12.10;47.80
5930;DHT22;2990;48.746;9.236;2023-03-16T13:40:47;11.70;28.40
5930;DHT22;2990;48.746;9.236;2023-03-16T13:43:15;11.60;75.00
5930;DHT22;2990;48.746;9.236;2023-03-16T13:45:42;11.80;40.50
5930;DHT22;2990;48.746;9.236;2023-03-16T13:48:12;11.60;66.70
5930;DHT22;2990;48.746;9.236;2023-03-16T13:50:38;11.50;40.10
5930;DHT22;2990;48.746;9.236;2023-03-16T13:53:26;11.60;40.90
5930;DHT22;2990;48.746;9.236;2023-03-16T13:55:58;11.70;70.90
5930;DHT22;2990;48.746;9.236;2023-03-16T13:58:30;11.60;73.20
5930;DHT22;2990;48.746;9.236;2023-03-16T14:00:59;11.70;69.30
5930;DHT22;2990;48.746;9.236;2023-03-16T14:03:37;11.80;17.50
5930;DHT22;2990;48.746;9.236;2023-03-16T14:06:05;11.50;40.60
5930;DHT22;2990;48.746;9.236;2023-03-16T14:08:31;11.70;1.00
5930;DHT22;2990;48.746;9.236;2023-03-16T14:10:59;11.80;1.00
5930;DHT22;2990;48.746;9.236;2023-03-16T14:16:01;12.30;1.00
5930;DHT22;2990;48.746;9.236;2023-03-16T14:18:38;12.60;1.00
5930;DHT22;2990;48.746;9.236;2023-03-16T14:21:17;12.80;1.00
5930;DHT22;2990;48.746;9.236;2023-03-16T14:23:45;12.70;1.00
5930;DHT22;2990;48.746;9.236;2023-03-16T14:26:14;12.40;1.00
5930;DHT22;2990;48.746;9.236;2023-03-16T14:28:52;12.30;1.00
5930;DHT22;2990;48.746;9.236;2023-03-16T14:31:19;12.40;9.10
5930;DHT22;2990;48.746;9.236;2023-03-16T14:33:59;12.20;1.00
5930;DHT22;2990;48.746;9.236;2023-03-16T14:36:39;12.30;1.00
5930;DHT22;2990;48.746;9.236;2023-03-16T14:39:33;12.30;1.00
5930;DHT22;2990;48.746;9.236;2023-03-16T14:42:58;12.40;1.00
5930;DHT22;2990;48.746;9.236;2023-03-16T14:45:44;12.30;7.40
5930;DHT22;2990;48.746;9.236;2023-03-16T14:48:23;12.20;9.10
5930;DHT22;2990;48.746;9.236;2023-03-16T14:51:18;12.20;12.80
5930;DHT22;2990;48.746;9.236;2023-03-16T14:57:42;12.30;15.60
5930;DHT22;2990;48.746;9.236;2023-03-16T15:00:19;12.20;6.70
5930;DHT22;2990;48.746;9.236;2023-03-16T15:05:55;12.30;30.40
5930;DHT22;2990;48.746;9.236;2023-03-16T15:08:27;12.30;10.70
5930;DHT22;2990;48.746;9.236;2023-03-16T15:11:05;12.10;15.60
5930;DHT22;2990;48.746;9.236;2023-03-16T15:13:52;12.20;17.80
5930;DHT22;2990;48.746;9.236;2023-03-16T15:16:34;12.00;21.40
5930;DHT22;2990;48.746;9.236;2023-03-16T15:19:19;12.10;8.30
5930;DHT22;2990;48.746;9.236;2023-03-16T15:22:13;12.10;21.10
5930;DHT22;2990;48.746;9.236;2023-03-16T15:24:50;12.10;44.80
5930;DHT22;2990;48.746;9.236;2023-03-16T15:27:41;12.10;31.90
5930;DHT22;2990;48.746;9.236;2023-03-16T15:33:47;12.20;13.50
5930;DHT22;2990;48.746;9.236;2023-03-16T15:36:26;12.20;26.70
5930;DHT22;2990;48.746;9.236;2023-03-16T15:39:04;12.10;8.60
5930;DHT22;2990;48.746;9.236;2023-03-16T15:41:52;12.10;23.20
5930;DHT22;2990;48.746;9.236;2023-03-16T15:47:20;12.00;28.30
5930;DHT22;2990;48.746;9.236;2023-03-16T15:50:32;11.80;31.30
5930;DHT22;2990;48.746;9.236;2023-03-16T15:53:42;11.60;17.10
5930;DHT22;2990;48.746;9.236;2023-03-16T15:56:12;11.70;23.50
5930;DHT22;2990;48.746;9.236;2023-03-16T15:58:42;11.80;35.30
5930;DHT22;2990;48.746;9.236;2023-03-16T16:01:22;11.60;25.30
5930;DHT22;2990;48.746;9.236;2023-03-16T16:04:01;11.50;40.80
5930;DHT22;2990;48.746;9.236;2023-03-16T16:06:31;11.50;43.10
5930;DHT22;2990;48.746;9.236;2023-03-16T16:08:59;11.40;50.50
5930;DHT22;2990;48.746;9.236;2023-03-16T16:11:27;11.30;46.10
5930;DHT22;2990;48.746;9.236;2023-03-16T16:13:55;11.30;50.90
5930;DHT22;2990;48.746;9.236;2023-03-16T16:16:43;11.30;48.70
5930;DHT22;2990;48.746;9.236;2023-03-16T16:20:11;11.30;48.70
5930;DHT22;2990;48.746;9.236;2023-03-16T16:26:27;11.10;52.20
5930;DHT22;2990;48.746;9.236;2023-03-16T16:28:55;11.00;51.40
5930;DHT22;2990;48.746;9.236;2023-03-16T16:31:23;10.90;53.80
5930;DHT22;2990;48.746;9.236;2023-03-16T16:33:50;10.90;50.80
5930;DHT22;2990;48.746;9.236;2023-03-16T16:36:18;10.90;49.80
5930;DHT22;2990;48.746;9.236;2023-03-16T16:38:47;10.80;51.50
5930;DHT22;2990;48.746;9.236;2023-03-16T16:41:27;10.80;55.90
5930;DHT22;2990;48.746;9.236;2023-03-16T16:43:54;10.70;55.60
5930;DHT22;2990;48.746;9.236;2023-03-16T16:46:26;10.60;54.80
5930;DHT22;2990;48.746;9.236;2023-03-16T16:49:22;10.50;58.70
5930;DHT22;2990;48.746;9.236;2023-03-16T16:51:48;10.50;53.60
5930;DHT22;2990;48.746;9.236;2023-03-16T16:54:17;10.40;54.30
5930;DHT22;2990;48.746;9.236;2023-03-16T16:56:43;10.40;60.50
5930;DHT22;2990;48.746;9.236;2023-03-16T16:59:21;10.30;59.80
5930;DHT22;2990;48.746;9.236;2023-03-16T17:01:49;10.20;81.90
5930;DHT22;2990;48.746;9.236;2023-03-16T17:04:24;10.10;70.10
5930;DHT22;2990;48.746;9.236;2023-03-16T17:06:56;10.00;78.40
5930;DHT22;2990;48.746;9.236;2023-03-16T17:09:24;9.90;80.50
5930;DHT22;2990;48.746;9.236;2023-03-16T17:11:51;9.80;86.40
5930;DHT22;2990;48.746;9.236;2023-03-16T17:14:23;9.70;95.90
5930;DHT22;2990;48.746;9.236;2023-03-16T17:16:52;9.70;87.20
5930;DHT22;2990;48.746;9.236;2023-03-16T17:19:28;9.60;87.70
5930;DHT22;2990;48.746;9.236;2023-03-16T17:25:16;9.40;93.30
5930;DHT22;2990;48.746;9.236;2023-03-16T17:27:42;9.30;96.80
5930;DHT22;2990;48.746;9.236;2023-03-16T17:30:28;9.20;99.90
5930;DHT22;2990;48.746;9.236;2023-03-16T17:33:00;9.20;99.90
5930;DHT22;2990;48.746;9.236;2023-03-16T17:35:27;9.10;99.90
5930;DHT22;2990;48.746;9.236;2023-03-16T17:37:52;9.00;99.90
5930;DHT22;2990;48.746;9.236;2023-03-16T17:40:22;8.90;99.90
5930;DHT22;2990;48.746;9.236;2023-03-16T17:42:50;8.90;99.90
5930;DHT22;2990;48.746;9.236;2023-03-16T17:45:20;8.80;99.90
5930;DHT22;2990;48.746;9.236;2023-03-16T17:47:47;8.70;99.90
5930;DHT22;2990;48.746;9.236;2023-03-16T17:50:26;8.70;99.90
5930;DHT22;2990;48.746;9.236;2023-03-16T17:52:54;8.60;99.90
5930;DHT22;2990;48.746;9.236;2023-03-16T17:55:21;8.60;99.90
5930;DHT22;2990;48.746;9.236;2023-03-16T17:58:09;8.60;99.90
5930;DHT22;2990;48.746;9.236;2023-03-16T18:01:07;8.50;99.90
5930;DHT22;2990;48.746;9.236;2023-03-16T18:03:33;8.50;97.70
5930;DHT22;2990;48.746;9.236;2023-03-16T18:06:28;8.60;98.50
5930;DHT22;2990;48.746;9.236;2023-03-16T18:09:18;8.50;99.90
5930;DHT22;2990;48.746;9.236;2023-03-16T18:11:47;8.50;96.70
5930;DHT22;2990;48.746;9.236;2023-03-16T18:18:10;8.40;94.10
5930;DHT22;2990;48.746;9.236;2023-03-16T18:20:41;8.40;99.90
5930;DHT22;2990;48.746;9.236;2023-03-16T18:27:05;8.20;99.90
5930;DHT22;2990;48.746;9.236;2023-03-16T18:56:26;7.90;99.90
5930;DHT22;2990;48.746;9.236;2023-03-16T19:06:00;7.80;99.90
5930;DHT22;2990;48.746;9.236;2023-03-16T19:08:41;7.70;99.00
5930;DHT22;2990;48.746;9.236;2023-03-16T19:38:19;7.40;99.90
5930;DHT22;2990;48.746;9.236;2023-03-16T19:44:27;7.30;99.90
5930;DHT22;2990;48.746;9.236;2023-03-16T19:46:53;7.30;99.90
5930;DHT22;2990;48.746;9.236;2023-03-16T19:49:58;7.30;99.90
5930;DHT22;2990;48.746;9.236;2023-03-16T19:53:07;7.20;99.90
5930;DHT22;2990;48.746;9.236;2023-03-16T19:59:20;7.20;99.90
5930;DHT22;2990;48.746;9.236;2023-03-16T20:02:27;7.10;99.90
5930;DHT22;2990;48.746;9.236;2023-03-16T20:05:00;7.00;99.90
5930;DHT22;2990;48.746;9.236;2023-03-16T20:07:25;7.00;99.90
5930;DHT22;2990;48.746;9.236;2023-03-16T20:09:51;7.00;99.90
5930;DHT22;2990;48.746;9.236;2023-03-16T20:12:25;7.00;99.90
5930;DHT22;2990;48.746;9.236;2023-03-16T20:14:52;6.90;99.90